Time;durP1;ratioP1;P1;durP2;ratioP2;P2;SDS_P1;SDS_P2;PMS_P1;PMS_P2;Temp;Humidity;BMP_temperature;BMP_pressure;BME280_temperature;BME280_humidity;BME280_pressure;Samples;Min_cycle;Max_cycle;Signal;HPM_P1;HPM_P2
2022/05/02 00:00:58;;;;;;;19.27;13.30;;;10.50;91.50;;;;;;5050053;28;20203;-75
2022/05/02 00:03:25;;;;;;;22.10;14.10;;;10.40;91.30;;;;;;5050314;28;20423;-75
2022/05/02 00:05:51;;;;;;;24.00;13.87;;;10.40;91.40;;;;;;5050454;28;20184;-74
2022/05/02 00:08:17;;;;;;;20.60;13.00;;;10.30;91.50;;;;;;5050780;28;20491;-75
2022/05/02 00:10:43;;;;;;;26.83;14.63;;;10.20;91.70;;;;;;5051110;28;20439;-75
2022/05/02 00:13:09;;;;;;;20.70;13.23;;;10.20;91.70;;;;;;5051250;28;20212;-73
2022/05/02 00:15:38;;;;;;;22.03;13.30;;;10.10;91.90;;;;;;5055786;28;20554;-74
2022/05/02 00:18:05;;;;;;;25.47;13.90;;;10.10;92.00;;;;;;5061073;28;20482;-74
2022/05/02 00:20:33;;;;;;;23.43;13.10;;;10.10;92.00;;;;;;5066087;28;20443;-76
2022/05/02 00:23:01;;;;;;;21.13;12.53;;;10.10;92.00;;;;;;5065649;28;20441;-76
2022/05/02 00:25:28;;;;;;;20.63;12.40;;;10.10;92.00;;;;;;5066567;28;20439;-76
2022/05/02 00:27:54;;;;;;;19.40;12.63;;;10.10;92.00;;;;;;5064891;28;20430;-75
2022/05/02 00:30:20;;;;;;;21.57;12.93;;;10.20;92.00;;;;;;5062513;28;20465;-74
2022/05/02 00:32:46;;;;;;;20.73;12.77;;;10.20;91.80;;;;;;5074400;28;20471;-75
2022/05/02 00:35:13;;;;;;;21.53;13.10;;;10.10;91.70;;;;;;5075205;28;20461;-76
2022/05/02 00:37:40;;;;;;;22.50;13.60;;;10.10;91.90;;;;;;5057540;28;20427;-76
2022/05/02 00:40:07;;;;;;;22.57;13.43;;;10.10;91.80;;;;;;5053459;28;20973;-77
2022/05/02 00:42:34;;;;;;;27.03;13.77;;;10.10;91.70;;;;;;5053583;28;20484;-77
2022/05/02 00:44:59;;;;;;;25.10;13.70;;;10.00;91.80;;;;;;5053118;28;21013;-75
2022/05/02 00:47:25;;;;;;;26.87;13.67;;;10.00;91.90;;;;;;5052698;28;20533;-74
2022/05/02 00:49:51;;;;;;;20.20;12.07;;;10.00;92.00;;;;;;5051703;28;20456;-75
2022/05/02 00:52:18;;;;;;;22.50;13.07;;;10.00;92.00;;;;;;5048688;28;20541;-76
2022/05/02 00:54:45;;;;;;;19.03;12.23;;;10.00;92.00;;;;;;5053476;28;20427;-75
2022/05/02 00:57:16;;;;;;;23.57;13.40;;;10.00;91.80;;;;;;5053912;28;20435;-76
2022/05/02 00:59:42;;;;;;;25.30;14.20;;;10.00;91.90;;;;;;5053041;28;20446;-76
2022/05/02 01:02:12;;;;;;;20.90;12.90;;;9.90;91.70;;;;;;5053660;28;20476;-75
2022/05/02 01:04:38;;;;;;;22.10;13.60;;;9.80;91.70;;;;;;5052706;28;20427;-74
2022/05/02 01:07:19;;;;;;;23.73;13.93;;;9.80;91.80;;;;;;5052270;28;20434;-75
2022/05/02 01:09:49;;;;;;;21.70;12.60;;;9.90;91.70;;;;;;5056356;28;20442;-75
2022/05/02 01:12:18;;;;;;;21.93;13.27;;;9.90;91.50;;;;;;5057877;28;20510;-74
2022/05/02 01:14:47;;;;;;;24.80;13.27;;;9.90;91.50;;;;;;5057463;28;20875;-75
2022/05/02 01:17:13;;;;;;;20.53;13.23;;;9.80;91.60;;;;;;5056458;28;20423;-75
2022/05/02 01:19:39;;;;;;;24.83;13.70;;;9.80;91.60;;;;;;5055103;28;20518;-76
2022/05/02 01:22:06;;;;;;;25.13;13.83;;;9.80;91.60;;;;;;5054316;28;20410;-76
2022/05/02 01:24:42;;;;;;;26.00;13.60;;;9.80;91.70;;;;;;5052763;28;20933;-75
2022/05/02 01:27:10;;;;;;;19.60;12.40;;;9.80;91.80;;;;;;5052845;28;20971;-74
2022/05/02 01:29:37;;;;;;;20.67;12.37;;;9.80;91.80;;;;;;5050985;28;20451;-75
2022/05/02 01:32:09;;;;;;;20.63;12.70;;;9.90;91.70;;;;;;5052656;28;20427;-73
2022/05/02 01:34:35;;;;;;;20.53;12.77;;;9.90;91.70;;;;;;5051763;28;20905;-76
2022/05/02 01:37:02;;;;;;;23.10;12.90;;;10.00;91.50;;;;;;5051622;28;20786;-76
2022/05/02 01:39:29;;;;;;;24.57;13.33;;;10.00;91.10;;;;;;5051209;28;20501;-76
2022/05/02 01:41:58;;;;;;;24.60;13.47;;;9.90;91.00;;;;;;5049940;28;20437;-75
2022/05/02 01:44:24;;;;;;;22.07;13.63;;;9.90;90.90;;;;;;5051609;28;20913;-76
2022/05/02 01:46:51;;;;;;;21.90;12.40;;;9.90;90.90;;;;;;5051699;28;20419;-75
2022/05/02 01:49:17;;;;;;;20.57;12.97;;;9.90;90.80;;;;;;5051492;28;20580;-75
2022/05/02 01:51:43;;;;;;;19.07;12.03;;;9.90;90.90;;;;;;5051457;28;20434;-75
2022/05/02 01:54:08;;;;;;;25.77;13.73;;;9.90;91.00;;;;;;5050982;28;20247;-75
2022/05/02 01:56:35;;;;;;;22.30;13.83;;;9.80;91.00;;;;;;5051395;28;20419;-75
2022/05/02 01:59:01;;;;;;;24.60;13.43;;;9.70;91.30;;;;;;5049885;28;20208;-75
2022/05/02 02:01:27;;;;;;;24.30;14.73;;;9.70;91.60;;;;;;5051676;28;20458;-75
2022/05/02 02:03:53;;;;;;;23.00;13.57;;;9.80;91.70;;;;;;5051124;28;20422;-74
2022/05/02 02:06:18;;;;;;;18.60;13.17;;;9.80;91.70;;;;;;5051912;28;20794;-74
2022/05/02 02:08:45;;;;;;;23.33;13.60;;;9.90;91.80;;;;;;5051117;28;20204;-76
2022/05/02 02:11:11;;;;;;;22.57;14.20;;;9.90;91.80;;;;;;5051555;28;20189;-76
2022/05/02 02:13:38;;;;;;;26.70;14.43;;;10.00;91.90;;;;;;5050547;28;20478;-74
2022/05/02 02:16:07;;;;;;;25.50;14.17;;;10.00;91.90;;;;;;5051143;28;20438;-76
2022/05/02 02:18:34;;;;;;;23.83;13.80;;;10.00;92.00;;;;;;5050658;28;20800;-76
2022/05/02 02:21:00;;;;;;;22.07;13.73;;;10.00;92.00;;;;;;5051099;28;20411;-76
2022/05/02 02:23:26;;;;;;;22.90;13.50;;;10.00;92.10;;;;;;5050911;28;20901;-75
2022/05/02 02:25:52;;;;;;;21.17;13.03;;;10.10;91.90;;;;;;5050888;28;20426;-76
2022/05/02 02:28:18;;;;;;;21.17;12.80;;;10.10;91.50;;;;;;5050864;28;20426;-76
2022/05/02 02:30:44;;;;;;;25.33;12.60;;;10.10;91.00;;;;;;5050619;28;20494;-75
2022/05/02 02:33:10;;;;;;;24.27;12.53;;;10.20;90.60;;;;;;5050842;28;20540;-76
2022/05/02 02:35:36;;;;;;;25.37;14.13;;;10.20;90.40;;;;;;5050808;28;20415;-76
2022/05/02 02:38:02;;;;;;;19.53;12.70;;;10.10;90.20;;;;;;5049787;28;20729;-75
2022/05/02 02:40:29;;;;;;;22.13;12.83;;;10.10;90.40;;;;;;5050488;28;20330;-77
2022/05/02 02:42:55;;;;;;;18.10;12.17;;;10.10;90.40;;;;;;5050622;28;20468;-76
2022/05/02 02:45:22;;;;;;;25.20;13.40;;;10.10;90.40;;;;;;5050831;28;20453;-74
2022/05/02 02:47:48;;;;;;;19.40;12.57;;;10.10;90.80;;;;;;5050752;28;20239;-75
2022/05/02 02:50:14;;;;;;;24.67;14.97;;;10.10;90.80;;;;;;5045112;28;20470;-75
2022/05/02 02:52:39;;;;;;;19.07;12.10;;;10.10;90.70;;;;;;5056135;28;20478;-74
2022/05/02 02:55:06;;;;;;;21.80;12.40;;;10.20;90.80;;;;;;5060145;28;20437;-74
2022/05/02 02:57:33;;;;;;;22.77;13.70;;;10.30;90.70;;;;;;5059202;28;20181;-74
2022/05/02 03:00:00;;;;;;;22.27;12.87;;;10.30;90.90;;;;;;5058722;28;20466;-76
2022/05/02 03:02:25;;;;;;;22.97;13.27;;;10.30;91.10;;;;;;5060906;28;20420;-76
2022/05/02 03:07:36;;;;;;;22.50;13.07;;;10.30;90.70;;;;;;5061011;28;20422;-75
2022/05/02 03:10:04;;;;;;;21.80;12.60;;;10.30;90.60;;;;;;5058528;28;20443;-74
2022/05/02 03:12:29;;;;;;;22.93;12.90;;;10.40;90.60;;;;;;5054808;28;20426;-75
2022/05/02 03:14:55;;;;;;;23.67;13.77;;;10.40;90.50;;;;;;5056906;28;20790;-74
2022/05/02 03:17:21;;;;;;;23.47;13.10;;;10.20;90.20;;;;;;5055605;28;20701;-73
2022/05/02 03:19:47;;;;;;;21.87;12.90;;;10.10;90.20;;;;;;5054577;28;20208;-75
2022/05/02 03:22:13;;;;;;;22.50;12.90;;;10.10;90.30;;;;;;5057413;28;20180;-73
2022/05/02 03:24:39;;;;;;;24.37;13.60;;;10.10;90.40;;;;;;5054994;28;20866;-75
2022/05/02 03:27:05;;;;;;;23.43;13.10;;;10.10;90.60;;;;;;5053029;28;20184;-75
2022/05/02 03:29:31;;;;;;;22.73;13.57;;;10.10;90.90;;;;;;5050563;28;20442;-75
2022/05/02 03:31:57;;;;;;;23.93;14.20;;;10.10;91.00;;;;;;5050367;28;20557;-75
2022/05/02 03:34:22;;;;;;;21.33;13.10;;;10.10;91.10;;;;;;5049953;28;20307;-76
2022/05/02 03:36:48;;;;;;;20.90;12.90;;;10.20;91.00;;;;;;5050093;28;20188;-76
2022/05/02 03:39:14;;;;;;;23.83;15.10;;;10.20;91.00;;;;;;5049916;28;20239;-76
2022/05/02 03:41:40;;;;;;;24.77;15.30;;;10.10;91.10;;;;;;5048588;28;20184;-75
2022/05/02 03:44:06;;;;;;;23.97;14.30;;;10.10;91.20;;;;;;5049986;28;20928;-75
2022/05/02 03:46:31;;;;;;;26.63;14.53;;;10.10;91.20;;;;;;5049843;28;20250;-76
2022/05/02 03:48:59;;;;;;;27.43;15.40;;;10.10;91.40;;;;;;5048092;28;20219;-75
2022/05/02 03:51:25;;;;;;;28.40;14.53;;;10.10;91.50;;;;;;5041252;28;20193;-76
2022/05/02 03:53:51;;;;;;;27.67;14.70;;;10.20;91.40;;;;;;5049428;28;20864;-77
2022/05/02 03:56:16;;;;;;;26.47;14.90;;;10.20;91.40;;;;;;5049841;28;20897;-75
2022/05/02 03:58:42;;;;;;;22.90;13.23;;;10.30;91.30;;;;;;5051965;28;20288;-74
2022/05/02 04:01:08;;;;;;;25.80;14.40;;;10.40;91.10;;;;;;5056941;28;20181;-76
2022/05/02 04:03:34;;;;;;;23.83;14.47;;;10.50;90.80;;;;;;5056735;28;20246;-75
2022/05/02 04:05:59;;;;;;;23.90;15.10;;;10.50;90.80;;;;;;5051745;28;20626;-77
2022/05/02 04:08:25;;;;;;;22.70;13.47;;;10.60;90.60;;;;;;5052159;28;20602;-76
2022/05/02 04:10:51;;;;;;;25.07;14.80;;;10.50;90.50;;;;;;5050147;28;20189;-75
2022/05/02 04:13:17;;;;;;;23.20;13.67;;;10.60;90.50;;;;;;5050859;28;20215;-75
2022/05/02 04:15:42;;;;;;;26.63;15.50;;;10.60;90.20;;;;;;5050461;28;20176;-76
2022/05/02 04:18:08;;;;;;;33.47;15.70;;;10.50;90.00;;;;;;5049053;28;20180;-77
2022/05/02 04:20:34;;;;;;;20.87;13.30;;;10.50;90.20;;;;;;5050596;28;20204;-75
2022/05/02 04:23:00;;;;;;;23.57;14.70;;;10.40;90.30;;;;;;5050577;28;20180;-75
2022/05/02 04:25:26;;;;;;;29.67;15.17;;;10.30;90.50;;;;;;5053145;28;20932;-76
2022/05/02 04:27:51;;;;;;;25.00;15.10;;;10.30;90.80;;;;;;5050961;28;20513;-75
2022/05/02 04:30:17;;;;;;;27.13;15.47;;;10.40;90.80;;;;;;5052093;28;20219;-75
2022/05/02 04:32:43;;;;;;;28.30;16.47;;;10.50;90.90;;;;;;5050932;28;20239;-76
2022/05/02 04:35:10;;;;;;;26.17;15.63;;;10.50;90.80;;;;;;5049655;28;20210;-76
2022/05/02 04:37:37;;;;;;;25.63;14.83;;;10.50;90.80;;;;;;5049882;28;20471;-76
2022/05/02 04:40:03;;;;;;;26.60;15.07;;;10.40;90.90;;;;;;5052387;28;20435;-77
2022/05/02 04:42:29;;;;;;;27.37;14.80;;;10.50;90.90;;;;;;5051645;28;20467;-76
2022/05/02 04:44:55;;;;;;;23.37;14.53;;;10.60;90.80;;;;;;5049576;28;20419;-76
2022/05/02 04:47:21;;;;;;;27.43;16.03;;;10.60;90.70;;;;;;5049167;28;20185;-76
2022/05/02 04:49:46;;;;;;;26.27;15.47;;;10.60;90.80;;;;;;5047714;28;20266;-77
2022/05/02 04:52:12;;;;;;;22.00;14.50;;;10.70;90.70;;;;;;5043565;28;20276;-74
2022/05/02 04:54:38;;;;;;;30.43;15.97;;;10.70;90.70;;;;;;5049089;28;20212;-75
2022/05/02 04:57:04;;;;;;;25.07;15.17;;;10.80;90.60;;;;;;5049110;28;20188;-76
2022/05/02 04:59:30;;;;;;;26.73;15.50;;;10.80;90.40;;;;;;5048931;28;20228;-75
2022/05/02 05:01:57;;;;;;;27.73;15.97;;;10.90;90.20;;;;;;5052486;28;20459;-75
2022/05/02 05:04:23;;;;;;;25.53;15.60;;;10.90;90.20;;;;;;5052902;28;20184;-77
2022/05/02 05:06:49;;;;;;;30.00;16.23;;;10.90;90.20;;;;;;5054141;28;20443;-76
2022/05/02 05:09:15;;;;;;;32.40;18.73;;;10.90;90.40;;;;;;5053255;28;20542;-75
2022/05/02 05:12:08;;;;;;;26.07;16.53;;;10.90;90.50;;;;;;5052825;28;20717;-76
2022/05/02 05:18:11;;;;;;;27.03;16.00;;;10.90;90.80;;;;;;5052884;28;20419;-77
2022/05/02 05:20:58;;;;;;;27.40;16.57;;;11.00;90.80;;;;;;5053233;28;20496;-76
2022/05/02 05:23:50;;;;;;;29.17;16.57;;;11.10;90.70;;;;;;5053550;28;20791;-77
2022/05/02 05:26:25;;;;;;;27.77;16.43;;;11.10;90.70;;;;;;5047187;28;20508;-77
2022/05/02 05:29:31;;;;;;;31.43;18.97;;;11.10;90.70;;;;;;5054047;28;20487;-76
2022/05/02 05:32:18;;;;;;;30.60;18.10;;;11.20;90.70;;;;;;5057019;28;20411;-79
2022/05/02 05:34:49;;;;;;;30.90;17.47;;;11.20;90.70;;;;;;5053111;28;20888;-76
2022/05/02 05:37:21;;;;;;;31.93;16.80;;;11.30;90.50;;;;;;5052970;28;20450;-76
2022/05/02 05:40:08;;;;;;;32.27;19.67;;;11.30;90.40;;;;;;5052732;28;20491;-75
2022/05/02 05:42:54;;;;;;;29.73;17.63;;;11.40;90.10;;;;;;5052464;28;20465;-77
2022/05/02 05:45:48;;;;;;;33.60;18.87;;;11.40;89.90;;;;;;5052448;28;20427;-77
2022/05/02 05:48:43;;;;;;;27.30;16.63;;;11.50;89.90;;;;;;5051870;28;20539;-76
2022/05/02 05:51:25;;;;;;;43.47;21.03;;;11.60;89.90;;;;;;5012978;28;20491;-76
2022/05/02 05:54:12;;;;;;;36.27;19.17;;;11.80;89.60;;;;;;5045332;28;20471;-72
2022/05/02 05:57:14;;;;;;;36.20;20.03;;;11.80;89.50;;;;;;5015294;28;20514;-75
2022/05/02 06:00:06;;;;;;;31.53;19.77;;;11.80;89.20;;;;;;5040345;28;21312;-74
2022/05/02 06:02:55;;;;;;;39.60;22.70;;;11.80;89.20;;;;;;5033766;28;20482;-74
2022/05/02 06:05:21;;;;;;;39.90;21.10;;;11.80;89.30;;;;;;5037223;28;20519;-74
2022/05/02 06:07:47;;;;;;;36.93;21.40;;;11.80;89.30;;;;;;5029566;28;20493;-74
2022/05/02 06:10:16;;;;;;;37.17;21.37;;;11.80;89.30;;;;;;5033864;28;20546;-73
2022/05/02 06:12:43;;;;;;;34.67;21.80;;;11.90;89.20;;;;;;5028554;28;20213;-73
2022/05/02 06:20:43;;;;;;;41.70;22.23;;;12.10;88.70;;;;;;5035745;28;20964;-73
2022/05/02 06:23:13;;;;;;;41.90;21.80;;;12.20;88.10;;;;;;5033323;28;20610;-76
2022/05/02 06:25:40;;;;;;;35.20;21.30;;;12.20;88.30;;;;;;5033502;28;20477;-75
2022/05/02 06:28:07;;;;;;;40.60;22.67;;;12.30;87.60;;;;;;5035891;28;20921;-75
2022/05/02 06:30:36;;;;;;;40.77;23.37;;;12.20;87.30;;;;;;5052035;28;20842;-74
2022/05/02 06:33:09;;;;;;;37.30;22.20;;;12.30;87.10;;;;;;5051773;28;20462;-73
2022/05/02 06:36:12;;;;;;;35.13;20.00;;;12.30;86.80;;;;;;5051817;28;20914;-74
2022/05/02 06:39:24;;;;;;;41.50;22.10;;;12.40;86.60;;;;;;5051088;28;20494;-74
2022/05/02 06:42:13;;;;;;;35.23;20.53;;;12.40;86.20;;;;;;5028260;28;20424;-75
2022/05/02 06:44:54;;;;;;;43.37;22.20;;;12.50;86.00;;;;;;5011764;28;20435;-75
2022/05/02 06:47:34;;;;;;;45.43;22.60;;;12.50;85.90;;;;;;5011988;28;20428;-76
2022/05/02 06:50:04;;;;;;;39.03;22.77;;;12.50;86.00;;;;;;5024496;28;20821;-74
2022/05/02 06:52:39;;;;;;;36.37;20.73;;;12.70;85.60;;;;;;5024036;28;20531;-75
2022/05/02 06:55:29;;;;;;;38.93;20.30;;;12.90;84.90;;;;;;5028288;28;20486;-74
2022/05/02 06:58:23;;;;;;;34.73;20.00;;;12.90;84.40;;;;;;5023509;28;20428;-74
2022/05/02 07:01:16;;;;;;;34.80;19.37;;;13.00;84.00;;;;;;5028754;28;20428;-75
2022/05/02 07:04:10;;;;;;;38.73;21.20;;;13.10;84.00;;;;;;4988851;28;20432;-74
2022/05/02 07:06:45;;;;;;;34.67;19.77;;;13.20;84.10;;;;;;4942388;29;20459;-74
2022/05/02 07:09:20;;;;;;;38.60;20.57;;;13.20;83.80;;;;;;4949078;29;20513;-74
2022/05/02 07:12:12;;;;;;;43.10;22.30;;;13.30;82.70;;;;;;4946208;28;20431;-75
2022/05/02 07:14:55;;;;;;;39.30;20.80;;;13.20;82.40;;;;;;4970521;28;20574;-74
2022/05/02 07:17:47;;;;;;;42.40;22.30;;;13.20;82.70;;;;;;4969463;28;20438;-74
2022/05/02 07:20:24;;;;;;;36.10;21.20;;;13.30;82.80;;;;;;4964268;28;20555;-76
2022/05/02 07:22:50;;;;;;;40.90;20.70;;;13.30;82.10;;;;;;4952613;28;20540;-75
2022/05/02 07:25:20;;;;;;;41.87;21.77;;;13.20;82.50;;;;;;4969370;28;20558;-74
2022/05/02 07:28:07;;;;;;;40.57;21.97;;;13.30;82.70;;;;;;4968888;28;20202;-75
2022/05/02 07:30:34;;;;;;;38.40;23.10;;;13.30;81.90;;;;;;4972731;28;20458;-74
2022/05/02 07:33:02;;;;;;;33.63;20.47;;;13.40;82.10;;;;;;4970932;28;20577;-73
2022/05/02 07:35:29;;;;;;;38.80;20.53;;;13.40;81.70;;;;;;4965947;28;20432;-75
2022/05/02 07:37:57;;;;;;;41.60;21.90;;;13.60;81.20;;;;;;4956547;28;20427;-74
2022/05/02 07:40:25;;;;;;;37.40;21.17;;;13.60;80.90;;;;;;4971986;28;20538;-74
2022/05/02 07:42:53;;;;;;;44.30;21.00;;;13.70;80.60;;;;;;5005893;28;20426;-74
2022/05/02 07:45:24;;;;;;;37.80;20.67;;;13.80;80.30;;;;;;5054082;28;20933;-73
2022/05/02 07:47:53;;;;;;;33.50;20.60;;;13.90;79.70;;;;;;5053190;28;20424;-75
2022/05/02 07:50:23;;;;;;;33.37;21.07;;;14.00;79.30;;;;;;5043335;28;20448;-74
2022/05/02 07:52:51;;;;;;;41.30;21.00;;;14.10;78.90;;;;;;5052076;28;20490;-73
2022/05/02 07:55:21;;;;;;;34.73;20.03;;;14.20;78.30;;;;;;5052876;28;20415;-73
2022/05/02 07:57:48;;;;;;;40.53;20.50;;;14.30;78.10;;;;;;5052145;28;20423;-74
2022/05/02 08:00:16;;;;;;;36.53;20.40;;;14.40;77.80;;;;;;5053308;28;20938;-74
2022/05/02 08:02:42;;;;;;;35.23;20.70;;;14.40;77.60;;;;;;5052190;28;20433;-73
2022/05/02 08:05:09;;;;;;;40.80;19.83;;;14.50;77.00;;;;;;5052471;28;20427;-74
2022/05/02 08:07:45;;;;;;;37.70;21.50;;;14.50;76.70;;;;;;5051619;28;20419;-74
2022/05/02 08:10:38;;;;;;;34.70;20.43;;;14.50;76.70;;;;;;5052287;28;20436;-75
2022/05/02 08:13:17;;;;;;;34.90;20.33;;;14.50;76.70;;;;;;5052472;28;20479;-72
2022/05/02 08:16:01;;;;;;;30.40;18.17;;;14.60;76.40;;;;;;5050027;28;20422;-73
2022/05/02 08:18:55;;;;;;;35.00;20.80;;;14.60;76.20;;;;;;5049870;28;20505;-72
2022/05/02 08:21:27;;;;;;;34.37;20.67;;;14.60;76.10;;;;;;5044413;28;20423;-74
2022/05/02 08:27:36;;;;;;;34.20;21.00;;;14.90;75.70;;;;;;5050718;28;20850;-73
2022/05/02 08:30:09;;;;;;;30.93;18.43;;;14.90;75.20;;;;;;5044811;28;20427;-74
2022/05/02 08:32:52;;;;;;;33.40;19.40;;;14.90;74.80;;;;;;5047064;28;20426;-74
2022/05/02 08:35:30;;;;;;;28.47;18.40;;;15.00;74.20;;;;;;5051731;28;20784;-74
2022/05/02 08:38:08;;;;;;;39.03;22.30;;;15.20;73.20;;;;;;5046491;28;20464;-74
2022/05/02 08:40:54;;;;;;;37.83;21.07;;;15.20;73.00;;;;;;5053983;28;20426;-73
2022/05/02 08:43:40;;;;;;;35.60;20.80;;;15.30;73.20;;;;;;5053197;28;20449;-73
2022/05/02 08:46:31;;;;;;;37.00;19.93;;;15.30;72.70;;;;;;5052945;28;20857;-74
2022/05/02 08:49:35;;;;;;;36.20;19.43;;;15.40;72.00;;;;;;5044826;28;20438;-73
2022/05/02 08:52:12;;;;;;;30.40;17.60;;;15.40;71.40;;;;;;5045438;28;20472;-74
2022/05/02 08:54:57;;;;;;;30.00;17.60;;;15.50;70.50;;;;;;5051746;28;20462;-73
2022/05/02 08:57:41;;;;;;;32.10;18.70;;;15.50;71.00;;;;;;5052874;28;20823;-73
2022/05/02 09:00:14;;;;;;;30.60;19.30;;;15.60;71.60;;;;;;5052679;28;20494;-74
2022/05/02 09:03:07;;;;;;;31.27;17.67;;;15.70;71.30;;;;;;5054441;28;20517;-74
2022/05/02 09:05:59;;;;;;;27.67;16.77;;;15.70;69.40;;;;;;5055742;28;20446;-74
2022/05/02 09:08:50;;;;;;;24.50;15.97;;;15.70;69.40;;;;;;5029565;28;20459;-74
2022/05/02 09:11:31;;;;;;;25.90;14.57;;;15.60;69.10;;;;;;5056152;28;20493;-74
2022/05/02 09:14:11;;;;;;;33.77;18.53;;;15.80;68.50;;;;;;5055323;28;20463;-74
2022/05/02 09:16:52;;;;;;;27.57;16.87;;;16.10;68.80;;;;;;5054230;28;20520;-74
2022/05/02 09:19:39;;;;;;;27.67;17.30;;;16.30;68.50;;;;;;5051733;28;20465;-75
2022/05/02 09:22:26;;;;;;;28.63;17.50;;;16.40;68.50;;;;;;5046910;28;20418;-74
2022/05/02 09:25:07;;;;;;;26.43;16.33;;;16.60;68.60;;;;;;5054717;28;20449;-74
2022/05/02 09:27:42;;;;;;;29.97;18.20;;;16.70;67.60;;;;;;5057148;28;20441;-73
2022/05/02 09:30:45;;;;;;;29.30;17.77;;;16.70;68.00;;;;;;5056648;28;20449;-75
2022/05/02 09:33:38;;;;;;;29.13;19.70;;;16.80;67.50;;;;;;5054495;28;20825;-74
2022/05/02 09:36:12;;;;;;;26.77;16.40;;;16.80;66.40;;;;;;5046844;28;20419;-75
2022/05/02 09:38:48;;;;;;;29.37;16.60;;;16.70;65.80;;;;;;5051108;28;20426;-74
2022/05/02 09:42:02;;;;;;;24.23;15.33;;;16.60;65.60;;;;;;5052574;28;20462;-74
2022/05/02 09:51:19;;;;;;;26.90;15.07;;;16.80;63.80;;;;;;5044474;28;20410;-73
2022/05/02 09:54:12;;;;;;;21.30;13.50;;;17.00;63.90;;;;;;5050323;28;20527;-73
2022/05/02 09:56:46;;;;;;;23.63;14.43;;;17.20;63.90;;;;;;5051835;28;20446;-73
2022/05/02 09:59:26;;;;;;;19.50;13.50;;;17.20;63.40;;;;;;5047679;28;20555;-74
2022/05/02 10:02:18;;;;;;;19.03;12.57;;;17.40;63.20;;;;;;5051866;28;20399;-72
2022/05/02 10:05:03;;;;;;;23.23;14.87;;;17.10;63.20;;;;;;5047205;28;20849;-73
2022/05/02 10:07:30;;;;;;;23.07;14.53;;;17.20;63.70;;;;;;5051829;28;20419;-74
2022/05/02 10:10:02;;;;;;;25.77;14.27;;;17.30;63.40;;;;;;5044279;28;20434;-73
2022/05/02 10:12:45;;;;;;;22.03;14.10;;;17.50;63.20;;;;;;5051486;28;20840;-74
2022/05/02 10:15:11;;;;;;;17.77;12.67;;;17.80;61.50;;;;;;5061057;28;20432;-74
2022/05/02 10:18:01;;;;;;;20.00;12.43;;;17.80;61.30;;;;;;5057577;28;20822;-74
2022/05/02 10:20:55;;;;;;;20.67;12.57;;;17.90;61.60;;;;;;5054167;28;20193;-73
2022/05/02 10:23:42;;;;;;;18.50;13.30;;;18.30;60.10;;;;;;5048680;28;20412;-73
2022/05/02 10:26:26;;;;;;;21.67;13.27;;;18.80;58.90;;;;;;5046707;28;20996;-72
2022/05/02 10:29:01;;;;;;;19.50;13.20;;;19.30;56.40;;;;;;5053953;28;20461;-74
2022/05/02 10:31:32;;;;;;;12.47;9.70;;;19.70;55.00;;;;;;5054125;28;20450;-73
2022/05/02 10:34:02;;;;;;;16.33;10.90;;;20.10;53.00;;;;;;5052757;28;20478;-73
2022/05/02 10:36:35;;;;;;;19.57;11.70;;;19.90;52.90;;;;;;5051191;28;20430;-73
2022/05/02 10:39:15;;;;;;;16.63;12.27;;;19.90;54.00;;;;;;5050704;28;20442;-72
2022/05/02 10:41:46;;;;;;;21.63;13.53;;;19.80;51.20;;;;;;5050080;28;21247;-73
2022/05/02 10:44:15;;;;;;;16.73;11.10;;;19.80;52.00;;;;;;5054955;28;20463;-73
2022/05/02 10:46:44;;;;;;;16.97;12.23;;;19.90;53.20;;;;;;5051450;28;20913;-72
2022/05/02 10:49:20;;;;;;;15.37;10.40;;;20.10;52.90;;;;;;5050194;28;20845;-73
2022/05/02 10:52:07;;;;;;;17.60;10.80;;;20.20;53.20;;;;;;5051553;28;20510;-74
2022/05/02 10:54:46;;;;;;;15.60;9.17;;;20.60;51.80;;;;;;5052226;28;20475;-75
2022/05/02 10:57:33;;;;;;;13.67;9.60;;;20.80;49.40;;;;;;5052778;28;20419;-74
2022/05/02 11:00:06;;;;;;;15.87;9.27;;;20.30;49.80;;;;;;5055530;28;20467;-73
2022/05/02 11:02:52;;;;;;;11.57;8.47;;;20.10;49.50;;;;;;5054656;28;20415;-73
2022/05/02 11:05:47;;;;;;;13.20;8.77;;;20.00;49.70;;;;;;5052556;28;20952;-73
2022/05/02 11:08:35;;;;;;;11.27;8.80;;;19.90;50.20;;;;;;5026047;28;20429;-74
2022/05/02 11:11:06;;;;;;;10.73;8.90;;;20.00;49.80;;;;;;5051462;28;20407;-73
2022/05/02 11:14:00;;;;;;;13.67;9.00;;;19.80;49.70;;;;;;5051210;28;20459;-74
2022/05/02 11:16:36;;;;;;;11.40;8.47;;;20.00;49.00;;;;;;5038936;28;20411;-74
2022/05/02 11:22:30;;;;;;;13.70;9.30;;;20.80;48.10;;;;;;5047235;28;20421;-74
2022/05/02 11:25:19;;;;;;;11.53;7.40;;;20.90;47.30;;;;;;5043150;28;20423;-74
2022/05/02 11:27:52;;;;;;;9.57;7.00;;;20.50;47.10;;;;;;5048842;28;20422;-73
2022/05/02 11:30:29;;;;;;;9.50;7.60;;;20.40;47.90;;;;;;5050575;28;21062;-74
2022/05/02 11:33:22;;;;;;;15.63;8.43;;;20.70;48.30;;;;;;5050413;28;20454;-73
2022/05/02 11:35:54;;;;;;;13.63;9.57;;;21.10;47.90;;;;;;5049671;28;20416;-73
2022/05/02 11:38:38;;;;;;;12.83;9.40;;;21.40;47.50;;;;;;5050199;28;20406;-73
2022/05/02 11:41:13;;;;;;;16.03;10.83;;;21.40;47.90;;;;;;5045683;28;20412;-74
2022/05/02 11:43:39;;;;;;;12.80;9.70;;;20.60;49.10;;;;;;5049927;28;20423;-74
2022/05/02 11:46:09;;;;;;;15.17;9.47;;;19.70;51.80;;;;;;5050108;28;20423;-74
2022/05/02 11:48:41;;;;;;;12.20;9.20;;;19.70;52.40;;;;;;5050069;28;20422;-74
2022/05/02 11:51:07;;;;;;;11.53;8.40;;;19.50;52.50;;;;;;5051572;28;20513;-74
2022/05/02 11:53:39;;;;;;;13.60;9.20;;;19.40;52.40;;;;;;5051672;28;20836;-74
2022/05/02 11:56:05;;;;;;;10.63;8.57;;;19.40;52.10;;;;;;5051316;28;20470;-75
2022/05/02 11:58:45;;;;;;;10.20;7.77;;;19.40;52.10;;;;;;5048073;28;20415;-73
2022/05/02 12:01:16;;;;;;;11.93;8.90;;;19.60;52.20;;;;;;5053038;28;20422;-74
2022/05/02 12:04:00;;;;;;;11.50;9.03;;;19.90;51.70;;;;;;5055332;28;20448;-74
2022/05/02 12:06:58;;;;;;;15.00;10.00;;;20.20;51.20;;;;;;5053868;28;20419;-73
2022/05/02 12:09:24;;;;;;;12.23;8.70;;;20.20;51.00;;;;;;5055269;28;20443;-74
2022/05/02 12:11:52;;;;;;;9.67;8.30;;;20.00;51.30;;;;;;5060206;28;20417;-74
2022/05/02 12:14:20;;;;;;;18.10;9.80;;;19.70;52.10;;;;;;5060662;28;20607;-74
2022/05/02 12:17:21;;;;;;;11.83;8.47;;;19.70;52.40;;;;;;5060471;28;20514;-73
2022/05/02 12:19:47;;;;;;;12.93;7.67;;;19.70;52.00;;;;;;5037836;28;20584;-74
2022/05/02 12:22:21;;;;;;;13.57;8.03;;;19.80;51.70;;;;;;5040553;28;20460;-74
2022/05/02 12:24:49;;;;;;;9.50;6.93;;;19.90;51.20;;;;;;5047057;28;20251;-75
2022/05/02 12:27:16;;;;;;;9.57;7.13;;;20.10;50.90;;;;;;5026583;28;20426;-74
2022/05/02 12:29:43;;;;;;;9.60;7.37;;;20.70;51.00;;;;;;5048564;28;20525;-73
2022/05/02 12:32:10;;;;;;;11.27;7.00;;;21.50;47.40;;;;;;5039003;28;20425;-74
2022/05/02 12:34:47;;;;;;;11.33;7.50;;;21.70;46.10;;;;;;5003637;28;20852;-74
2022/05/02 12:37:23;;;;;;;11.00;7.40;;;21.50;45.40;;;;;;5034599;28;20460;-74
2022/05/02 12:40:04;;;;;;;11.93;7.70;;;21.30;45.80;;;;;;5030608;28;20455;-75
2022/05/02 12:42:47;;;;;;;10.97;7.60;;;21.50;45.70;;;;;;5034585;28;20467;-74
2022/05/02 12:45:16;;;;;;;8.60;6.90;;;21.90;45.90;;;;;;5034983;28;20535;-73
2022/05/02 12:47:45;;;;;;;10.50;8.00;;;22.20;45.50;;;;;;5018123;28;20439;-73
2022/05/02 12:50:16;;;;;;;9.73;7.60;;;22.20;45.90;;;;;;5031085;28;20452;-74
2022/05/02 12:52:48;;;;;;;10.13;8.07;;;22.10;46.30;;;;;;5033642;28;20875;-76
2022/05/02 12:55:15;;;;;;;12.87;7.50;;;21.40;47.90;;;;;;5056828;28;20432;-74
2022/05/02 13:00:40;;;;;;;12.03;7.70;;;21.00;48.20;;;;;;5056930;28;20558;-73
2022/05/02 13:03:18;;;;;;;8.50;7.17;;;20.60;48.60;;;;;;5058249;28;20424;-73
2022/05/02 13:05:57;;;;;;;10.07;7.10;;;20.20;48.70;;;;;;5056963;28;20431;-74
2022/05/02 13:08:35;;;;;;;9.30;6.80;;;20.00;50.60;;;;;;5053913;28;20522;-73
2022/05/02 13:11:09;;;;;;;8.73;6.23;;;20.50;49.90;;;;;;5059212;28;20419;-75
2022/05/02 13:13:39;;;;;;;10.37;7.60;;;20.90;48.30;;;;;;5059992;28;20450;-73
2022/05/02 13:16:25;;;;;;;12.67;6.70;;;21.00;47.90;;;;;;5062083;28;20423;-74
2022/05/02 13:18:51;;;;;;;8.00;5.90;;;20.90;47.80;;;;;;5058673;28;20432;-73
2022/05/02 13:21:18;;;;;;;7.97;6.03;;;20.80;47.70;;;;;;5057942;28;20502;-74
2022/05/02 13:23:50;;;;;;;10.20;6.70;;;20.80;47.10;;;;;;5054463;28;20806;-74
2022/05/02 13:26:20;;;;;;;8.13;6.17;;;20.70;47.40;;;;;;5055362;28;20427;-74
2022/05/02 13:29:23;;;;;;;11.97;5.73;;;20.70;47.10;;;;;;5052688;28;20807;-73
2022/05/02 13:32:01;;;;;;;7.73;6.07;;;20.80;47.00;;;;;;5053169;28;20443;-73